sensor_id;sensor_type;location;lat;lon;timestamp;pressure;altitude;pressure_sealevel;temperature;humidity
5913;BME280;2982;42.684;23.356;2023-04-01T00:02:19;94060.00;;;10.79;100.00
5913;BME280;2982;42.684;23.356;2023-04-01T00:04:45;94051.88;;;10.62;100.00
5913;BME280;2982;42.684;23.356;2023-04-01T00:07:10;94068.22;;;10.70;100.00
5913;BME280;2982;42.684;23.356;2023-04-01T00:09:36;94056.47;;;10.56;100.00
5913;BME280;2982;42.684;23.356;2023-04-01T00:12:01;94057.78;;;10.49;100.00
5913;BME280;2982;42.684;23.356;2023-04-01T00:14:26;94061.84;;;10.39;100.00
5913;BME280;2982;42.684;23.356;2023-04-01T00:16:52;94061.41;;;10.20;100.00
5913;BME280;2982;42.684;23.356;2023-04-01T00:19:17;94058.66;;;10.23;100.00
5913;BME280;2982;42.684;23.356;2023-04-01T00:21:42;94069.63;;;10.24;100.00
5913;BME280;2982;42.684;23.356;2023-04-01T00:24:07;94067.69;;;10.27;100.00
5913;BME280;2982;42.684;23.356;2023-04-01T00:26:33;94058.53;;;10.12;100.00
5913;BME280;2982;42.684;23.356;2023-04-01T00:28:58;94060.50;;;10.21;100.00
5913;BME280;2982;42.684;23.356;2023-04-01T00:31:24;94042.97;;;9.91;100.00
5913;BME280;2982;42.684;23.356;2023-04-01T00:33:51;94065.81;;;10.04;100.00
5913;BME280;2982;42.684;23.356;2023-04-01T00:36:18;94064.00;;;10.06;100.00
5913;BME280;2982;42.684;23.356;2023-04-01T00:38:45;94055.06;;;10.00;100.00
5913;BME280;2982;42.684;23.356;2023-04-01T00:41:11;94052.69;;;9.85;100.00
5913;BME280;2982;42.684;23.356;2023-04-01T00:43:38;94041.63;;;9.86;100.00
5913;BME280;2982;42.684;23.356;2023-04-01T00:46:03;94038.09;;;9.88;100.00
5913;BME280;2982;42.684;23.356;2023-04-01T00:48:32;94040.13;;;9.83;100.00
5913;BME280;2982;42.684;23.356;2023-04-01T00:53:29;94003.34;;;9.63;100.00
5913;BME280;2982;42.684;23.356;2023-04-01T00:56:00;94028.63;;;9.78;100.00
5913;BME280;2982;42.684;23.356;2023-04-01T00:58:28;94024.16;;;9.81;100.00
5913;BME280;2982;42.684;23.356;2023-04-01T01:00:55;94016.78;;;9.91;100.00
5913;BME280;2982;42.684;23.356;2023-04-01T01:03:21;94007.03;;;9.85;100.00
5913;BME280;2982;42.684;23.356;2023-04-01T01:11:20;94004.00;;;9.80;100.00
5913;BME280;2982;42.684;23.356;2023-04-01T01:13:58;93995.22;;;9.71;100.00
5913;BME280;2982;42.684;23.356;2023-04-01T01:16:31;94002.22;;;9.67;100.00
5913;BME280;2982;42.684;23.356;2023-04-01T01:27:31;93990.53;;;9.52;100.00
5913;BME280;2982;42.684;23.356;2023-04-01T01:35:50;93979.72;;;9.63;100.00
5913;BME280;2982;42.684;23.356;2023-04-01T01:38:22;93972.09;;;9.63;100.00
5913;BME280;2982;42.684;23.356;2023-04-01T01:40:50;93962.88;;;9.62;100.00
5913;BME280;2982;42.684;23.356;2023-04-01T01:43:19;93953.22;;;9.54;100.00
5913;BME280;2982;42.684;23.356;2023-04-01T01:45:49;93960.63;;;9.57;100.00
5913;BME280;2982;42.684;23.356;2023-04-01T01:48:17;93964.59;;;9.61;100.00
5913;BME280;2982;42.684;23.356;2023-04-01T01:50:44;93971.19;;;9.64;100.00
5913;BME280;2982;42.684;23.356;2023-04-01T01:53:12;93967.63;;;9.66;100.00
5913;BME280;2982;42.684;23.356;2023-04-01T01:55:43;93952.25;;;9.69;100.00
5913;BME280;2982;42.684;23.356;2023-04-01T01:58:32;93941.38;;;9.67;100.00
5913;BME280;2982;42.684;23.356;2023-04-01T02:01:01;93938.16;;;9.65;100.00
5913;BME280;2982;42.684;23.356;2023-04-01T02:03:31;93941.91;;;9.72;100.00
5913;BME280;2982;42.684;23.356;2023-04-01T02:06:00;93940.78;;;9.77;100.00
5913;BME280;2982;42.684;23.356;2023-04-01T02:11:04;93934.09;;;10.01;100.00
5913;BME280;2982;42.684;23.356;2023-04-01T02:13:51;93935.59;;;10.03;100.00
5913;BME280;2982;42.684;23.356;2023-04-01T02:16:42;93929.53;;;10.06;100.00
5913;BME280;2982;42.684;23.356;2023-04-01T02:19:10;93931.25;;;10.05;100.00
5913;BME280;2982;42.684;23.356;2023-04-01T02:21:37;93906.59;;;9.95;100.00
5913;BME280;2982;42.684;23.356;2023-04-01T02:24:07;93916.53;;;10.10;100.00
5913;BME280;2982;42.684;23.356;2023-04-01T02:26:34;93912.97;;;10.13;100.00
5913;BME280;2982;42.684;23.356;2023-04-01T02:29:01;93911.38;;;10.12;100.00
5913;BME280;2982;42.684;23.356;2023-04-01T02:31:27;93918.19;;;10.24;100.00
5913;BME280;2982;42.684;23.356;2023-04-01T02:33:53;93917.47;;;10.22;100.00
5913;BME280;2982;42.684;23.356;2023-04-01T02:36:19;93929.69;;;10.17;100.00
5913;BME280;2982;42.684;23.356;2023-04-01T02:38:45;93930.06;;;10.24;100.00
5913;BME280;2982;42.684;23.356;2023-04-01T02:41:12;93926.09;;;10.32;100.00
5913;BME280;2982;42.684;23.356;2023-04-01T02:43:37;93929.13;;;10.37;100.00
5913;BME280;2982;42.684;23.356;2023-04-01T02:46:02;93936.75;;;10.37;100.00
5913;BME280;2982;42.684;23.356;2023-04-01T02:48:28;93948.44;;;10.40;100.00
5913;BME280;2982;42.684;23.356;2023-04-01T02:50:54;93933.88;;;10.42;100.00
5913;BME280;2982;42.684;23.356;2023-04-01T02:53:19;93940.28;;;10.47;100.00
5913;BME280;2982;42.684;23.356;2023-04-01T02:55:45;93959.41;;;10.40;100.00
5913;BME280;2982;42.684;23.356;2023-04-01T02:58:10;93944.38;;;10.25;100.00
5913;BME280;2982;42.684;23.356;2023-04-01T03:00:36;93951.88;;;10.39;100.00
5913;BME280;2982;42.684;23.356;2023-04-01T03:03:01;93950.66;;;10.32;100.00
5913;BME280;2982;42.684;23.356;2023-04-01T03:05:27;93962.03;;;10.39;100.00
5913;BME280;2982;42.684;23.356;2023-04-01T03:07:52;93966.88;;;10.42;100.00
5913;BME280;2982;42.684;23.356;2023-04-01T03:10:18;93947.81;;;10.24;100.00
5913;BME280;2982;42.684;23.356;2023-04-01T03:12:43;93956.47;;;10.21;100.00
5913;BME280;2982;42.684;23.356;2023-04-01T03:15:13;93967.13;;;10.26;100.00
5913;BME280;2982;42.684;23.356;2023-04-01T03:17:39;93974.41;;;10.18;100.00
5913;BME280;2982;42.684;23.356;2023-04-01T03:20:05;93959.25;;;10.04;100.00
5913;BME280;2982;42.684;23.356;2023-04-01T03:22:31;93963.81;;;9.99;100.00
5913;BME280;2982;42.684;23.356;2023-04-01T03:24:56;93958.84;;;9.85;100.00
5913;BME280;2982;42.684;23.356;2023-04-01T03:27:21;93959.25;;;9.79;100.00
5913;BME280;2982;42.684;23.356;2023-04-01T03:29:46;93981.66;;;9.72;100.00
5913;BME280;2982;42.684;23.356;2023-04-01T03:32:12;93993.72;;;9.68;100.00
5913;BME280;2982;42.684;23.356;2023-04-01T03:34:37;93982.69;;;9.69;100.00
5913;BME280;2982;42.684;23.356;2023-04-01T03:37:02;93981.75;;;9.70;100.00
5913;BME280;2982;42.684;23.356;2023-04-01T03:39:27;93987.34;;;9.76;100.00
5913;BME280;2982;42.684;23.356;2023-04-01T03:41:53;93975.59;;;9.75;100.00
5913;BME280;2982;42.684;23.356;2023-04-01T03:44:18;93959.13;;;9.80;100.00
5913;BME280;2982;42.684;23.356;2023-04-01T03:46:43;93953.88;;;9.83;100.00
5913;BME280;2982;42.684;23.356;2023-04-01T03:49:10;93919.81;;;9.75;100.00
5913;BME280;2982;42.684;23.356;2023-04-01T03:51:35;93934.63;;;9.93;100.00
5913;BME280;2982;42.684;23.356;2023-04-01T03:54:00;93924.34;;;9.95;100.00
5913;BME280;2982;42.684;23.356;2023-04-01T03:56:26;93896.88;;;9.89;100.00
5913;BME280;2982;42.684;23.356;2023-04-01T03:58:51;93893.03;;;9.83;100.00
5913;BME280;2982;42.684;23.356;2023-04-01T04:01:21;93888.75;;;9.96;100.00
5913;BME280;2982;42.684;23.356;2023-04-01T04:03:46;93865.59;;;10.01;100.00
5913;BME280;2982;42.684;23.356;2023-04-01T04:06:16;93859.50;;;10.03;100.00
5913;BME280;2982;42.684;23.356;2023-04-01T04:08:41;93876.25;;;10.06;100.00
5913;BME280;2982;42.684;23.356;2023-04-01T04:11:07;93871.41;;;10.03;100.00
5913;BME280;2982;42.684;23.356;2023-04-01T04:13:33;93859.13;;;9.97;100.00
5913;BME280;2982;42.684;23.356;2023-04-01T04:15:58;93855.06;;;9.82;100.00
5913;BME280;2982;42.684;23.356;2023-04-01T04:18:24;93851.41;;;9.86;100.00
5913;BME280;2982;42.684;23.356;2023-04-01T04:20:49;93845.22;;;9.90;100.00
5913;BME280;2982;42.684;23.356;2023-04-01T04:23:14;93847.75;;;9.90;100.00
5913;BME280;2982;42.684;23.356;2023-04-01T04:25:40;93844.09;;;9.94;100.00
5913;BME280;2982;42.684;23.356;2023-04-01T04:28:05;93808.72;;;9.80;100.00
5913;BME280;2982;42.684;23.356;2023-04-01T04:30:30;93833.53;;;10.00;100.00
5913;BME280;2982;42.684;23.356;2023-04-01T04:32:56;93796.66;;;9.83;100.00
5913;BME280;2982;42.684;23.356;2023-04-01T04:35:21;93817.19;;;10.04;100.00
5913;BME280;2982;42.684;23.356;2023-04-01T04:37:46;93807.97;;;9.90;100.00
5913;BME280;2982;42.684;23.356;2023-04-01T04:40:12;93820.34;;;9.95;100.00
5913;BME280;2982;42.684;23.356;2023-04-01T04:42:37;93809.63;;;9.91;100.00
5913;BME280;2982;42.684;23.356;2023-04-01T04:45:02;93810.34;;;9.93;100.00
5913;BME280;2982;42.684;23.356;2023-04-01T04:47:28;93804.56;;;9.79;100.00
5913;BME280;2982;42.684;23.356;2023-04-01T04:49:53;93798.06;;;9.87;100.00
5913;BME280;2982;42.684;23.356;2023-04-01T04:52:18;93799.69;;;9.88;100.00
5913;BME280;2982;42.684;23.356;2023-04-01T04:54:44;93795.44;;;9.89;100.00
5913;BME280;2982;42.684;23.356;2023-04-01T04:57:09;93785.56;;;9.97;100.00
5913;BME280;2982;42.684;23.356;2023-04-01T04:59:34;93791.94;;;10.02;100.00
5913;BME280;2982;42.684;23.356;2023-04-01T05:02:00;93789.09;;;9.94;100.00
5913;BME280;2982;42.684;23.356;2023-04-01T05:04:26;93792.59;;;9.93;100.00
5913;BME280;2982;42.684;23.356;2023-04-01T05:06:51;93790.22;;;9.90;100.00
5913;BME280;2982;42.684;23.356;2023-04-01T05:09:17;93759.09;;;9.88;100.00
5913;BME280;2982;42.684;23.356;2023-04-01T05:11:42;93787.38;;;10.07;100.00
5913;BME280;2982;42.684;23.356;2023-04-01T05:14:12;93771.84;;;10.12;100.00
5913;BME280;2982;42.684;23.356;2023-04-01T05:16:38;93765.53;;;10.05;100.00
5913;BME280;2982;42.684;23.356;2023-04-01T05:19:03;93763.41;;;9.99;100.00
5913;BME280;2982;42.684;23.356;2023-04-01T05:21:29;93771.97;;;9.98;100.00
5913;BME280;2982;42.684;23.356;2023-04-01T05:23:54;93756.44;;;10.02;100.00
5913;BME280;2982;42.684;23.356;2023-04-01T05:26:19;93724.59;;;9.98;100.00
5913;BME280;2982;42.684;23.356;2023-04-01T05:28:45;93751.50;;;10.25;100.00
5913;BME280;2982;42.684;23.356;2023-04-01T05:31:10;93761.13;;;10.32;100.00
5913;BME280;2982;42.684;23.356;2023-04-01T05:33:36;93735.91;;;10.42;100.00
5913;BME280;2982;42.684;23.356;2023-04-01T05:36:12;93748.25;;;10.70;100.00
5913;BME280;2982;42.684;23.356;2023-04-01T05:38:38;93737.28;;;10.70;100.00
5913;BME280;2982;42.684;23.356;2023-04-01T05:41:04;93755.44;;;10.87;100.00
5913;BME280;2982;42.684;23.356;2023-04-01T05:43:29;93749.78;;;10.84;100.00
5913;BME280;2982;42.684;23.356;2023-04-01T05:45:54;93737.31;;;10.81;100.00
5913;BME280;2982;42.684;23.356;2023-04-01T05:48:19;93759.75;;;10.98;100.00
5913;BME280;2982;42.684;23.356;2023-04-01T05:50:45;93752.38;;;10.95;100.00
5913;BME280;2982;42.684;23.356;2023-04-01T05:53:10;93737.81;;;10.97;100.00
5913;BME280;2982;42.684;23.356;2023-04-01T05:55:35;93728.16;;;11.35;100.00
5913;BME280;2982;42.684;23.356;2023-04-01T05:58:01;93739.53;;;11.98;100.00
5913;BME280;2982;42.684;23.356;2023-04-01T06:00:26;93732.13;;;12.70;100.00
5913;BME280;2982;42.684;23.356;2023-04-01T06:02:52;93727.06;;;13.62;100.00
5913;BME280;2982;42.684;23.356;2023-04-01T06:07:44;93721.41;;;15.62;81.10
5913;BME280;2982;42.684;23.356;2023-04-01T06:10:20;93729.88;;;16.27;74.69
5913;BME280;2982;42.684;23.356;2023-04-01T06:15:36;93727.91;;;16.56;65.58
5913;BME280;2982;42.684;23.356;2023-04-01T06:53:53;93714.56;;;13.59;100.00
5913;BME280;2982;42.684;23.356;2023-04-01T06:56:25;93686.13;;;13.64;100.00
5913;BME280;2982;42.684;23.356;2023-04-01T06:58:57;93675.13;;;13.73;100.00
5913;BME280;2982;42.684;23.356;2023-04-01T07:01:29;93677.44;;;13.76;100.00
5913;BME280;2982;42.684;23.356;2023-04-01T07:06:48;93659.78;;;13.63;100.00
5913;BME280;2982;42.684;23.356;2023-04-01T07:09:32;93685.31;;;13.63;100.00
5913;BME280;2982;42.684;23.356;2023-04-01T07:12:02;93680.09;;;13.65;100.00
5913;BME280;2982;42.684;23.356;2023-04-01T07:14:41;93673.41;;;13.83;100.00
5913;BME280;2982;42.684;23.356;2023-04-01T07:19:44;93674.19;;;14.43;100.00
5913;BME280;2982;42.684;23.356;2023-04-01T07:22:32;93648.66;;;14.43;100.00
5913;BME280;2982;42.684;23.356;2023-04-01T07:25:07;93669.34;;;14.30;100.00
5913;BME280;2982;42.684;23.356;2023-04-01T07:27:36;93686.31;;;14.50;100.00
5913;BME280;2982;42.684;23.356;2023-04-01T07:30:03;93672.44;;;14.63;100.00
5913;BME280;2982;42.684;23.356;2023-04-01T07:32:44;93667.63;;;14.69;99.96
5913;BME280;2982;42.684;23.356;2023-04-01T07:35:23;93675.81;;;14.63;100.00
5913;BME280;2982;42.684;23.356;2023-04-01T07:40:42;93681.56;;;14.84;100.00
5913;BME280;2982;42.684;23.356;2023-04-01T07:49:30;93662.16;;;15.11;100.00
5913;BME280;2982;42.684;23.356;2023-04-01T07:52:06;93658.53;;;15.04;100.00
5913;BME280;2982;42.684;23.356;2023-04-01T07:57:02;93661.13;;;15.31;96.26
5913;BME280;2982;42.684;23.356;2023-04-01T08:05:29;93647.13;;;14.88;95.89
5913;BME280;2982;42.684;23.356;2023-04-01T08:10:41;93651.16;;;15.01;96.59
5913;BME280;2982;42.684;23.356;2023-04-01T08:13:17;93647.31;;;15.24;94.43
5913;BME280;2982;42.684;23.356;2023-04-01T08:15:55;93634.28;;;15.44;94.20
5913;BME280;2982;42.684;23.356;2023-04-01T08:21:02;93620.97;;;15.78;86.24
5913;BME280;2982;42.684;23.356;2023-04-01T08:23:41;93614.66;;;16.00;86.36
5913;BME280;2982;42.684;23.356;2023-04-01T08:27:01;93612.34;;;16.14;84.12
5913;BME280;2982;42.684;23.356;2023-04-01T08:29:22;93611.66;;;16.22;82.43
5913;BME280;2982;42.684;23.356;2023-04-01T08:32:00;93607.25;;;16.32;82.10
5913;BME280;2982;42.684;23.356;2023-04-01T08:34:39;93596.19;;;16.49;80.69
5913;BME280;2982;42.684;23.356;2023-04-01T08:39:45;93558.75;;;16.74;76.10
5913;BME280;2982;42.684;23.356;2023-04-01T08:45:26;93562.47;;;16.80;73.41
5913;BME280;2982;42.684;23.356;2023-04-01T08:48:17;93535.66;;;16.56;73.71
5913;BME280;2982;42.684;23.356;2023-04-01T08:51:11;93556.09;;;16.66;74.79
5913;BME280;2982;42.684;23.356;2023-04-01T08:56:37;93540.38;;;16.43;74.14
5913;BME280;2982;42.684;23.356;2023-04-01T09:27:04;93553.34;;;18.35;52.94
5913;BME280;2982;42.684;23.356;2023-04-01T09:35:47;93526.09;;;17.60;55.80
5913;BME280;2982;42.684;23.356;2023-04-01T09:38:30;93509.53;;;17.54;56.23
5913;BME280;2982;42.684;23.356;2023-04-01T09:44:00;93508.78;;;17.70;56.82
5913;BME280;2982;42.684;23.356;2023-04-01T10:03:59;93456.97;;;17.67;57.41
5913;BME280;2982;42.684;23.356;2023-04-01T10:15:00;93453.28;;;17.85;58.20
5913;BME280;2982;42.684;23.356;2023-04-01T10:17:45;93463.41;;;17.95;58.39
5913;BME280;2982;42.684;23.356;2023-04-01T10:25:53;93459.47;;;17.50;60.58
5913;BME280;2982;42.684;23.356;2023-04-01T10:28:29;93453.41;;;17.59;60.76
5913;BME280;2982;42.684;23.356;2023-04-01T10:42:38;93440.59;;;17.01;63.50
5913;BME280;2982;42.684;23.356;2023-04-01T10:45:37;93427.75;;;17.01;64.01
5913;BME280;2982;42.684;23.356;2023-04-01T10:48:41;93420.66;;;16.87;65.14
5913;BME280;2982;42.684;23.356;2023-04-01T10:57:01;93402.94;;;16.60;67.36
5913;BME280;2982;42.684;23.356;2023-04-01T10:59:53;93403.16;;;16.75;67.76
5913;BME280;2982;42.684;23.356;2023-04-01T11:02:35;93400.06;;;16.71;65.78
5913;BME280;2982;42.684;23.356;2023-04-01T11:32:54;93422.81;;;16.66;60.54
5913;BME280;2982;42.684;23.356;2023-04-01T11:43:49;93490.03;;;16.08;85.80
5913;BME280;2982;42.684;23.356;2023-04-01T11:54:37;93624.84;;;13.54;100.00
5913;BME280;2982;42.684;23.356;2023-04-01T11:57:35;93641.00;;;12.73;100.00
5913;BME280;2982;42.684;23.356;2023-04-01T12:03:10;93656.94;;;11.91;100.00
5913;BME280;2982;42.684;23.356;2023-04-01T12:08:41;93652.38;;;11.52;100.00
5913;BME280;2982;42.684;23.356;2023-04-01T12:11:19;93629.69;;;11.60;100.00
5913;BME280;2982;42.684;23.356;2023-04-01T12:13:53;93635.25;;;11.54;100.00
5913;BME280;2982;42.684;23.356;2023-04-01T12:19:19;93624.59;;;11.71;100.00
5913;BME280;2982;42.684;23.356;2023-04-01T12:22:27;93630.03;;;12.09;100.00
5913;BME280;2982;42.684;23.356;2023-04-01T12:25:22;93622.66;;;12.59;100.00
5913;BME280;2982;42.684;23.356;2023-04-01T12:28:00;93635.66;;;13.28;100.00
5913;BME280;2982;42.684;23.356;2023-04-01T12:30:35;93647.63;;;13.86;100.00
5913;BME280;2982;42.684;23.356;2023-04-01T12:36:09;93651.72;;;14.18;100.00
5913;BME280;2982;42.684;23.356;2023-04-01T12:54:59;93651.31;;;11.65;100.00
5913;BME280;2982;42.684;23.356;2023-04-01T13:16:33;93552.88;;;11.88;100.00
5913;BME280;2982;42.684;23.356;2023-04-01T13:22:32;93554.59;;;12.40;100.00
5913;BME280;2982;42.684;23.356;2023-04-01T13:25:06;93575.13;;;12.69;100.00
5913;BME280;2982;42.684;23.356;2023-04-01T13:27:44;93558.81;;;13.11;100.00
5913;BME280;2982;42.684;23.356;2023-04-01T13:30:31;93550.63;;;13.57;100.00
5913;BME280;2982;42.684;23.356;2023-04-01T13:33:27;93549.84;;;13.95;100.00
5913;BME280;2982;42.684;23.356;2023-04-01T13:36:16;93548.78;;;14.17;100.00
5913;BME280;2982;42.684;23.356;2023-04-01T13:41:50;93523.47;;;14.24;100.00
5913;BME280;2982;42.684;23.356;2023-04-01T13:44:36;93525.88;;;14.54;100.00
5913;BME280;2982;42.684;23.356;2023-04-01T13:54:51;93510.06;;;14.12;100.00
5913;BME280;2982;42.684;23.356;2023-04-01T14:05:48;93493.16;;;13.82;100.00
5913;BME280;2982;42.684;23.356;2023-04-01T14:13:46;93478.25;;;13.30;100.00
5913;BME280;2982;42.684;23.356;2023-04-01T14:28:08;93455.38;;;12.59;100.00
5913;BME280;2982;42.684;23.356;2023-04-01T14:33:23;93443.72;;;12.66;100.00
5913;BME280;2982;42.684;23.356;2023-04-01T14:50:06;93446.69;;;13.69;100.00
5913;BME280;2982;42.684;23.356;2023-04-01T14:52:38;93438.53;;;13.65;100.00
5913;BME280;2982;42.684;23.356;2023-04-01T14:55:57;93436.38;;;13.61;100.00
5913;BME280;2982;42.684;23.356;2023-04-01T14:58:24;93426.81;;;13.63;100.00
5913;BME280;2982;42.684;23.356;2023-04-01T15:03:32;93455.38;;;13.95;100.00
5913;BME280;2982;42.684;23.356;2023-04-01T15:09:13;93447.22;;;13.82;100.00
5913;BME280;2982;42.684;23.356;2023-04-01T15:14:20;93466.81;;;13.82;100.00
5913;BME280;2982;42.684;23.356;2023-04-01T15:31:04;93447.41;;;13.02;100.00
5913;BME280;2982;42.684;23.356;2023-04-01T15:35:47;93455.63;;;13.06;100.00
5913;BME280;2982;42.684;23.356;2023-04-01T15:41:24;93453.56;;;12.90;100.00
5913;BME280;2982;42.684;23.356;2023-04-01T15:43:49;93474.28;;;13.06;100.00
5913;BME280;2982;42.684;23.356;2023-04-01T15:51:52;93551.28;;;13.10;100.00
5913;BME280;2982;42.684;23.356;2023-04-01T15:57:03;93679.41;;;11.64;100.00
5913;BME280;2982;42.684;23.356;2023-04-01T16:05:31;93717.28;;;9.94;100.00
5913;BME280;2982;42.684;23.356;2023-04-01T16:10:44;93706.50;;;9.05;100.00
5913;BME280;2982;42.684;23.356;2023-04-01T16:21:08;93709.84;;;8.40;100.00
5913;BME280;2982;42.684;23.356;2023-04-01T16:24:02;93708.34;;;8.38;100.00
5913;BME280;2982;42.684;23.356;2023-04-01T16:29:26;93712.94;;;8.31;100.00
5913;BME280;2982;42.684;23.356;2023-04-01T16:34:48;93714.94;;;8.53;100.00
5913;BME280;2982;42.684;23.356;2023-04-01T16:37:34;93740.63;;;8.47;100.00
5913;BME280;2982;42.684;23.356;2023-04-01T16:40:33;93742.44;;;8.45;100.00
5913;BME280;2982;42.684;23.356;2023-04-01T16:45:41;93748.63;;;8.27;100.00
5913;BME280;2982;42.684;23.356;2023-04-01T16:48:17;93755.97;;;8.31;100.00
5913;BME280;2982;42.684;23.356;2023-04-01T16:50:56;93760.72;;;8.36;100.00
5913;BME280;2982;42.684;23.356;2023-04-01T16:53:49;93751.16;;;8.27;100.00
5913;BME280;2982;42.684;23.356;2023-04-01T16:56:24;93768.53;;;8.19;100.00
5913;BME280;2982;42.684;23.356;2023-04-01T16:59:15;93757.59;;;8.18;100.00
5913;BME280;2982;42.684;23.356;2023-04-01T17:02:00;93766.22;;;8.16;100.00
5913;BME280;2982;42.684;23.356;2023-04-01T17:04:30;93771.44;;;8.13;100.00
5913;BME280;2982;42.684;23.356;2023-04-01T17:10:28;93745.81;;;8.05;100.00
5913;BME280;2982;42.684;23.356;2023-04-01T17:21:02;93748.38;;;7.90;100.00
5913;BME280;2982;42.684;23.356;2023-04-01T17:23:38;93782.91;;;8.18;100.00
5913;BME280;2982;42.684;23.356;2023-04-01T17:27:13;93788.31;;;8.12;100.00
5913;BME280;2982;42.684;23.356;2023-04-01T17:47:43;93814.38;;;7.86;100.00
5913;BME280;2982;42.684;23.356;2023-04-01T17:50:23;93822.59;;;7.89;100.00
5913;BME280;2982;42.684;23.356;2023-04-01T17:56:11;93821.34;;;7.82;100.00
5913;BME280;2982;42.684;23.356;2023-04-01T17:58:46;93848.59;;;7.91;100.00
5913;BME280;2982;42.684;23.356;2023-04-01T18:09:32;93870.19;;;7.83;100.00
5913;BME280;2982;42.684;23.356;2023-04-01T18:12:16;93863.78;;;7.77;100.00
5913;BME280;2982;42.684;23.356;2023-04-01T18:20:19;93886.53;;;7.91;100.00
5913;BME280;2982;42.684;23.356;2023-04-01T18:23:02;93882.72;;;7.84;100.00
5913;BME280;2982;42.684;23.356;2023-04-01T18:25:32;93892.47;;;7.90;100.00
5913;BME280;2982;42.684;23.356;2023-04-01T18:30:32;93864.31;;;7.68;100.00
5913;BME280;2982;42.684;23.356;2023-04-01T18:38:13;93885.72;;;7.77;100.00
5913;BME280;2982;42.684;23.356;2023-04-01T18:41:07;93876.50;;;7.76;100.00
5913;BME280;2982;42.684;23.356;2023-04-01T18:43:39;93889.25;;;7.74;100.00
5913;BME280;2982;42.684;23.356;2023-04-01T18:47:12;93875.31;;;7.67;100.00
5913;BME280;2982;42.684;23.356;2023-04-01T18:51:57;93897.53;;;7.90;100.00
5913;BME280;2982;42.684;23.356;2023-04-01T18:54:32;93880.75;;;7.89;100.00
5913;BME280;2982;42.684;23.356;2023-04-01T18:57:12;93888.44;;;7.88;100.00
5913;BME280;2982;42.684;23.356;2023-04-01T18:59:46;93909.44;;;8.03;100.00
5913;BME280;2982;42.684;23.356;2023-04-01T19:02:24;93926.19;;;8.05;100.00
5913;BME280;2982;42.684;23.356;2023-04-01T19:05:00;93922.75;;;8.20;100.00
5913;BME280;2982;42.684;23.356;2023-04-01T19:21:01;93933.78;;;8.48;100.00
5913;BME280;2982;42.684;23.356;2023-04-01T19:26:27;93937.13;;;8.48;100.00
5913;BME280;2982;42.684;23.356;2023-04-01T19:31:48;93930.09;;;8.39;100.00
5913;BME280;2982;42.684;23.356;2023-04-01T19:34:25;93942.44;;;8.44;100.00
5913;BME280;2982;42.684;23.356;2023-04-01T19:36:58;93943.91;;;8.33;100.00
5913;BME280;2982;42.684;23.356;2023-04-01T19:39:45;93951.13;;;8.39;100.00
5913;BME280;2982;42.684;23.356;2023-04-01T19:42:29;93954.56;;;8.38;100.00
5913;BME280;2982;42.684;23.356;2023-04-01T19:47:39;93961.69;;;8.46;100.00
5913;BME280;2982;42.684;23.356;2023-04-01T19:50:24;93970.19;;;8.45;100.00
5913;BME280;2982;42.684;23.356;2023-04-01T19:52:54;93964.50;;;8.42;100.00
5913;BME280;2982;42.684;23.356;2023-04-01T19:58:34;93973.78;;;8.41;100.00
5913;BME280;2982;42.684;23.356;2023-04-01T20:01:04;93969.53;;;8.27;100.00
5913;BME280;2982;42.684;23.356;2023-04-01T20:06:08;93976.16;;;8.30;100.00
5913;BME280;2982;42.684;23.356;2023-04-01T20:08:44;93979.66;;;8.27;100.00
5913;BME280;2982;42.684;23.356;2023-04-01T20:11:26;93975.13;;;8.18;100.00
5913;BME280;2982;42.684;23.356;2023-04-01T20:16:50;93983.19;;;8.25;100.00
5913;BME280;2982;42.684;23.356;2023-04-01T20:19:27;93983.00;;;8.28;100.00
5913;BME280;2982;42.684;23.356;2023-04-01T20:21:57;93989.78;;;8.42;100.00
5913;BME280;2982;42.684;23.356;2023-04-01T20:24:24;93984.72;;;8.42;100.00
5913;BME280;2982;42.684;23.356;2023-04-01T20:27:02;93979.47;;;8.45;100.00
5913;BME280;2982;42.684;23.356;2023-04-01T20:34:57;93992.78;;;8.48;100.00
5913;BME280;2982;42.684;23.356;2023-04-01T20:40:35;93997.13;;;8.46;100.00
5913;BME280;2982;42.684;23.356;2023-04-01T20:43:20;94001.75;;;8.39;100.00
5913;BME280;2982;42.684;23.356;2023-04-01T20:45:55;93997.03;;;8.33;100.00
5913;BME280;2982;42.684;23.356;2023-04-01T20:48:43;94003.19;;;8.29;100.00
5913;BME280;2982;42.684;23.356;2023-04-01T20:51:15;93987.78;;;8.18;100.00
5913;BME280;2982;42.684;23.356;2023-04-01T20:54:00;93984.97;;;8.23;100.00
5913;BME280;2982;42.684;23.356;2023-04-01T20:56:50;93978.13;;;8.11;100.00
5913;BME280;2982;42.684;23.356;2023-04-01T21:07:41;94002.66;;;8.09;100.00
5913;BME280;2982;42.684;23.356;2023-04-01T21:16:23;94019.84;;;8.18;100.00
5913;BME280;2982;42.684;23.356;2023-04-01T21:21:42;94014.19;;;8.43;100.00
5913;BME280;2982;42.684;23.356;2023-04-01T21:32:17;94010.31;;;8.65;100.00
5913;BME280;2982;42.684;23.356;2023-04-01T21:40:34;94013.09;;;8.75;100.00
5913;BME280;2982;42.684;23.356;2023-04-01T21:45:58;94014.63;;;8.77;100.00
5913;BME280;2982;42.684;23.356;2023-04-01T21:54:24;94019.16;;;8.72;100.00
5913;BME280;2982;42.684;23.356;2023-04-01T22:17:18;94015.88;;;8.28;100.00
5913;BME280;2982;42.684;23.356;2023-04-01T22:19:32;94006.66;;;8.27;100.00
5913;BME280;2982;42.684;23.356;2023-04-01T22:22:12;94003.03;;;8.17;100.00
5913;BME280;2982;42.684;23.356;2023-04-01T22:25:02;94006.84;;;8.10;100.00
5913;BME280;2982;42.684;23.356;2023-04-01T22:27:38;94009.88;;;8.01;100.00
5913;BME280;2982;42.684;23.356;2023-04-01T22:30:29;94001.69;;;7.97;100.00
5913;BME280;2982;42.684;23.356;2023-04-01T22:35:54;94003.44;;;7.81;100.00
5913;BME280;2982;42.684;23.356;2023-04-01T22:43:41;94011.09;;;7.79;100.00
5913;BME280;2982;42.684;23.356;2023-04-01T22:46:22;94015.00;;;7.85;100.00
5913;BME280;2982;42.684;23.356;2023-04-01T22:48:54;94017.44;;;7.86;100.00
5913;BME280;2982;42.684;23.356;2023-04-01T22:56:42;94013.47;;;7.82;100.00
5913;BME280;2982;42.684;23.356;2023-04-01T22:59:19;94022.16;;;7.92;100.00
5913;BME280;2982;42.684;23.356;2023-04-01T23:01:52;94033.88;;;7.93;100.00
5913;BME280;2982;42.684;23.356;2023-04-01T23:04:24;94030.38;;;7.96;100.00